x

Cape Edgecumbe - 25nm Ssw Of Cape Edgecumbe, Ak (46084) Wave Buoy

10:50pm - Wed 26th Nov 2014 All times are AKST. -9 hours from GMT.

  • Sig Wave height 4.6ft
  • Peak Period 5s
  • Average Period 5s
  • Wind
    22mph, 29mph gusts
  • Sea Temp 49°f
  • Air Temp 42°f
  • Sea Pressure 1012.9mb
  • Cape Edgecumbe - 25nm Ssw Of Cape Edgecumbe, Ak
  • Cape Edgecumbe - 25nm Ssw Of Cape Edgecumbe, Ak

More Historic Weather Station data

Upgrade to MSW Pro to gain access to the past 30 days of data for over 8000 Wavebouys and Weather Stations around the globe.

Join Pro

Comparision Forecast

View Surf forecast
   
Wed 11/26 10:50pm 4.5ft 5s 5s 22 29 mph 1012.9mb 49f 42f
9:50pm 4ft 4s 4s 18 22 mph 1013.1mb 49f 42f
8:50pm 4ft 8s 5s 18 22 mph 1013.4mb 49f 42f
7:50pm 3.5ft 4s 5s 13 18 mph 1013.9mb 49f 42f
6:50pm 4ft 9s 5s 9 13 mph 1014.4mb 49f 42f
5:50pm 4ft 10s 5s 9 11 mph 1015mb 49f 43f
4:50pm 3.5ft 10s 5s 13 16 mph 1015.4mb 49f 43f
3:50pm 4.5ft 10s 6s 11 13 mph 1016mb 49f 43f
2:50pm 3.5ft 9s 6s 11 16 mph 1016.5mb 49f 42f
1:50pm 4ft 8s 6s 11 13 mph 1017.4mb 49f 42f
12:50pm 4.5ft 9s 6s 16 18 mph 1018.3mb 49f 43f
11:50am 4.5ft 11s 6s 13 18 mph 1019.3mb 49f 43f
10:50am 4.5ft 9s 7s 13 18 mph 1020.1mb 49f 44f
9:50am 4.5ft 11s 7s 11 16 mph 1020.6mb 49f 43f
8:50am 5ft 11s 7s 11 13 mph 1021.1mb 49f 44f
7:50am 4.5ft 9s 7s 9 13 mph 1021.1mb 49f 44f
6:50am 5ft 9s 7s 9 16 mph 1021.1mb 49f 43f
5:50am 5ft 10s 7s 7 11 mph 1021.4mb 49f 44f
4:50am 6ft 9s 7s 7 9 mph 1021.8mb 49f 44f
3:50am 5.5ft 9s 7s 7 9 mph 1022.2mb 49f 44f
2:50am 6ft 9s 7s 7 9 mph 1022.8mb 49f 44f
1:50am 6ft 11s 7s 7 9 mph 1023.1mb 49f 44f
12:50am 6ft 11s 8s 2 4 mph 1023.2mb 49f 45f
Tue 11/25 11:50pm 5.5ft 11s 7s 4 7 mph 1023.1mb 49f 45f
10:50pm 6ft 9s 7s 2 4 mph 1023mb 49f 45f
9:50pm 6ft 11s 7s 4
mph
1022.7mb 49f 45f
8:50pm 6ft 9s 8s 2 4 mph 1022.7mb 49f 45f
7:50pm 6ft 9s 7s 4 7 mph 1022.5mb 49f 44f
6:50pm 6.5ft 9s 8s 4 7 mph 1022.3mb 49f 44f
5:50pm 5.5ft 12s 7s 11 16 mph 1022.1mb 49f 45f
4:50pm 6ft 11s 7s 7 11 mph 1022mb 49f 45f
3:50pm 6ft 11s 7s 4 7 mph 1021.7mb 49f 45f
2:50pm 6ft 11s 7s 4
mph
1021.3mb 49f 45f
1:50pm 6ft 11s 7s 7
mph
1021.1mb 49f 44f
12:50pm 6ft 10s 7s 9 13 mph 1021.2mb 49f 44f
11:50am 6.5ft 11s 7s 2 4 mph 1021mb 49f 45f
10:50am 6.5ft 11s 7s 7 9 mph 1020.9mb 49f 46f
9:50am 7ft 11s 7s 4 7 mph 1020.4mb 49f 45f
8:50am 6.5ft 11s 7s 7 9 mph 1019.9mb 49f 47f
7:50am 7ft 11s 7s 7 9 mph 1019.4mb 49f 46f
6:50am 6ft 11s 7s 7 9 mph 1018.9mb 50f 46f
5:50am 6.5ft 10s 7s 11 13 mph 1018.5mb 49f 46f
4:50am 6.5ft 11s 7s 7 11 mph 1018.1mb 49f 47f
3:50am 7ft 10s 7s 7 11 mph 1017.8mb 49f 46f
2:50am 8ft 11s 7s 2 4 mph 1017.5mb 49f 45f
1:50am 7.5ft 11s 7s 4
mph
1017.2mb 49f 46f
12:50am 7.5ft 11s 7s 9 13 mph 1017.1mb 49f 45f
Mon 11/24 11:50pm 7.5ft 11s 7s 13 18 mph 1016.7mb 49f 46f
10:50pm 8ft 11s 7s 11 13 mph 1016.1mb 49f 47f
9:50pm 7.5ft 8s 7s 4 11 mph 1015.7mb 49f 46f
8:50pm 8ft 11s 7s 11 13 mph 1015.1mb 49f 47f
7:50pm 8ft 11s 7s 11 13 mph 1014.4mb 49f 47f
6:50pm 8ft 12s 7s 11 13 mph 1013.9mb 49f 47f
5:50pm 8ft 11s 7s 11 18 mph 1013.2mb 49f 45f
4:50pm 9ft 12s 7s 13 16 mph 1012.6mb 49f 46f
3:50pm 9.5ft 11s 7s 13 16 mph 1012mb 49f 46f
2:50pm 9ft 11s 7s 16 22 mph 1011.2mb 49f 46f
1:50pm 9ft 11s 7s 13 18 mph 1010.7mb 49f 46f
12:50pm 9.5ft 13s 7s 9 13 mph 1010.1mb 49f 46f
11:50am 10ft 12s 7s 16 20 mph 1009.5mb 49f 47f
10:50am 11ft 13s 8s 16 20 mph 1008.9mb 49f 46f
9:50am 9.5ft 10s 7s 18 22 mph 1008mb 49f 46f
8:50am 10ft 11s 7s 18 20 mph 1007mb 49f 46f
7:50am 9.5ft 11s 7s 18 22 mph 1006mb 49f 46f
6:50am 9.5ft 11s 7s 20 25 mph 1005.3mb 49f 46f
5:50am 10ft 12s 7s 20 25 mph 1004.6mb 49f 46f
4:50am 9ft 12s 7s 20 25 mph 1003.9mb 49f 45f
3:50am 9ft 12s 7s 18 22 mph 1003.3mb 49f 45f
2:50am 9.5ft 12s 7s 16 18 mph 1003mb 49f 44f
1:50am 11ft 13s 7s 9 13 mph 1002.9mb 49f 45f
12:50am 11ft 13s 6s 25 29 mph 1002.5mb 49f 45f
Sun 11/23 11:50pm 11ft 10s 7s 22 27 mph 1003.8mb 49f 45f
10:50pm 12ft 13s 7s 20 25 mph 1004.7mb 49f 44f
9:50pm 12ft 12s 8s 27 31 mph 1005.6mb 49f 44f
8:50pm 12.5ft 12s 8s 25 29 mph 1006.5mb 49f 44f
7:50pm 11ft 13s 8s 25 29 mph 1007mb 49f 45f
6:50pm 11ft 11s 8s 20 25 mph 1007.1mb 49f 48f
5:50pm 10.5ft 13s 8s 18 22 mph 1007.5mb 49f 48f
4:50pm 9.5ft 12s 8s 16 18 mph 1007.7mb 49f 48f
3:50pm 8.5ft 11s 7s 16 18 mph 1007.8mb 49f 48f
2:50pm 10.5ft 12s 8s 13 16 mph 1007.6mb 50f 48f
1:50pm 9.5ft 11s 8s 13 18 mph 1007.5mb 50f 48f
12:50pm 9.5ft 13s 7s 11 13 mph 1007.2mb 50f 47f
11:50am 10.5ft 13s 8s 16 20 mph 1006.6mb 49f 48f
10:50am 9.5ft 13s 8s 18 22 mph 1006mb 49f 48f
9:50am 12ft 13s 9s 16 20 mph 1005.2mb 49f 47f
8:50am 11ft 13s 8s 16 27 mph 1004.5mb 49f 47f